X  Schlie├čen METAR Luftfahrt Wetterdaten     KDNN Dalton Municipal Airport
Temperatur
19°C Temperatur
2°C Taupunkt
32% Feuchtigkeit



Wind
4 M/S
8 MPS
13 KM/S
7 KTS



230°
SW
Aktuelle Wetterlage

Klar Klar
Luftdruck 1022.35 (hPa) - 30.19 (inHg)
Sichtweite 10 (Meile) - 16.1 (Km)
Flughafen
Flughafen Code KDNN

Position : Dalton Municipal Airport
Entfernung: 34 (Km)

Metar:
KDNN 231655Z AUTO 23007KT 190V270 10SM CLR 19/02 A3019 RMK AO2 T01940024

Zeit: 04-23-2024 12:55 EDT